Time;durP1;ratioP1;P1;durP2;ratioP2;P2;SDS_P1;SDS_P2;PMS_P1;PMS_P2;Temp;Humidity;BMP_temperature;BMP_pressure;BME280_temperature;BME280_humidity;BME280_pressure;Samples;Min_cycle;Max_cycle;Signal;HPM_P1;HPM_P2
2021/04/28 00:01:46;;;;;;;11.40;7.27;;;;;;;;;;5065502;28;20230;-78
2021/04/28 00:04:15;;;;;;;10.73;7.23;;;;;;;;;;5071232;28;20199;-80
2021/04/28 00:06:45;;;;;;;10.23;6.63;;;;;;;;;;5064227;28;20202;-78
2021/04/28 00:09:13;;;;;;;11.87;7.00;;;;;;;;;;5058864;28;20207;-78
2021/04/28 00:11:41;;;;;;;9.90;7.00;;;;;;;;;;5062173;28;20208;-78
2021/04/28 00:14:18;;;;;;;11.43;6.80;;;;;;;;;;5054028;28;20714;-82
2021/04/28 00:16:46;;;;;;;10.47;6.87;;;;;;;;;;5070812;28;20199;-78
2021/04/28 00:19:14;;;;;;;9.33;6.83;;;;;;;;;;5042646;28;20277;-79
2021/04/28 00:21:43;;;;;;;12.43;7.90;;;;;;;;;;5060835;28;20210;-77
2021/04/28 00:24:11;;;;;;;11.73;7.30;;;;;;;;;;5061593;28;20570;-77
2021/04/28 00:26:39;;;;;;;12.23;7.20;;;;;;;;;;5066578;28;20691;-77
2021/04/28 00:29:07;;;;;;;12.70;6.80;;;;;;;;;;5059825;28;20204;-78
2021/04/28 00:31:35;;;;;;;12.00;6.60;;;;;;;;;;5053405;28;20209;-78
2021/04/28 00:34:03;;;;;;;9.33;6.87;;;;;;;;;;5061762;28;20215;-78
2021/04/28 00:36:32;;;;;;;13.77;7.27;;;;;;;;;;5060214;28;20567;-78
2021/04/28 00:39:00;;;;;;;9.67;6.57;;;;;;;;;;5061932;28;20206;-78
2021/04/28 00:41:28;;;;;;;12.90;7.43;;;;;;;;;;5057600;28;20196;-79
2021/04/28 00:43:56;;;;;;;16.50;8.03;;;;;;;;;;5055526;28;20226;-78
2021/04/28 00:46:25;;;;;;;16.97;9.33;;;;;;;;;;5056346;28;20219;-78
2021/04/28 00:48:53;;;;;;;14.50;8.97;;;;;;;;;;5034382;28;20214;-78
2021/04/28 00:51:21;;;;;;;20.20;11.10;;;;;;;;;;5051866;28;20684;-81
2021/04/28 00:53:51;;;;;;;20.07;12.10;;;;;;;;;;5053689;28;20206;-79
2021/04/28 00:56:19;;;;;;;18.93;10.63;;;;;;;;;;5056084;28;20203;-79
2021/04/28 00:58:46;;;;;;;15.87;9.90;;;;;;;;;;5060081;28;20689;-80
2021/04/28 01:01:14;;;;;;;14.83;8.60;;;;;;;;;;5061067;28;20732;-78
2021/04/28 01:03:44;;;;;;;13.30;8.93;;;;;;;;;;5050365;28;20220;-79
2021/04/28 01:06:12;;;;;;;15.73;8.07;;;;;;;;;;5050172;28;20202;-78
2021/04/28 01:08:41;;;;;;;16.47;8.40;;;;;;;;;;5061591;28;20658;-79
2021/04/28 01:11:11;;;;;;;13.80;8.27;;;;;;;;;;5054107;28;20222;-79
2021/04/28 01:13:55;;;;;;;16.90;8.97;;;;;;;;;;5057761;28;20218;-78
2021/04/28 01:16:23;;;;;;;14.77;8.33;;;;;;;;;;5062367;28;20199;-78
2021/04/28 01:18:54;;;;;;;15.33;7.97;;;;;;;;;;5055454;28;20211;-79
2021/04/28 01:21:22;;;;;;;12.97;8.10;;;;;;;;;;5060524;28;20204;-79
2021/04/28 01:23:52;;;;;;;10.90;6.90;;;;;;;;;;5054452;28;20301;-79
2021/04/28 01:26:21;;;;;;;11.90;8.13;;;;;;;;;;5059181;28;20210;-80
2021/04/28 01:28:49;;;;;;;11.80;7.27;;;;;;;;;;5064478;28;20210;-78
2021/04/28 01:31:18;;;;;;;11.83;7.37;;;;;;;;;;5051834;28;20223;-78
2021/04/28 01:33:47;;;;;;;11.43;8.63;;;;;;;;;;5056545;28;20659;-78
2021/04/28 01:36:19;;;;;;;12.00;7.50;;;;;;;;;;5061361;28;20690;-78
2021/04/28 01:38:51;;;;;;;11.50;7.93;;;;;;;;;;5052626;28;20211;-80
2021/04/28 01:41:24;;;;;;;10.90;7.70;;;;;;;;;;5051603;28;20234;-77
2021/04/28 01:43:54;;;;;;;11.03;7.80;;;;;;;;;;5048524;28;20231;-77
2021/04/28 01:46:25;;;;;;;16.90;8.10;;;;;;;;;;5058148;28;20203;-78
2021/04/28 01:48:56;;;;;;;10.90;8.13;;;;;;;;;;5055073;28;20203;-78
2021/04/28 01:51:31;;;;;;;11.30;7.40;;;;;;;;;;5057327;28;20211;-78
2021/04/28 01:54:00;;;;;;;11.47;7.50;;;;;;;;;;5058433;28;20203;-78
2021/04/28 01:56:28;;;;;;;7.53;6.60;;;;;;;;;;5053459;28;20210;-77
2021/04/28 01:59:19;;;;;;;11.43;7.57;;;;;;;;;;5069828;28;20226;-78
2021/04/28 02:01:57;;;;;;;10.63;7.73;;;;;;;;;;5040121;28;20697;-79
2021/04/28 02:04:43;;;;;;;11.03;7.20;;;;;;;;;;5051597;28;20203;-79
2021/04/28 02:07:14;;;;;;;9.47;7.60;;;;;;;;;;5041504;28;20198;-78
2021/04/28 02:09:43;;;;;;;11.03;7.43;;;;;;;;;;5063374;28;20227;-77
2021/04/28 02:12:18;;;;;;;15.63;7.83;;;;;;;;;;5053889;28;20214;-79
2021/04/28 02:14:48;;;;;;;10.97;6.93;;;;;;;;;;5072061;28;20213;-78
2021/04/28 02:17:26;;;;;;;13.20;8.10;;;;;;;;;;5058010;28;20665;-77
2021/04/28 02:19:59;;;;;;;12.07;7.50;;;;;;;;;;5059749;28;20230;-79
2021/04/28 02:22:33;;;;;;;10.47;7.00;;;;;;;;;;5053119;28;20575;-78
2021/04/28 02:25:10;;;;;;;9.70;7.13;;;;;;;;;;5049082;28;20218;-77
2021/04/28 02:27:52;;;;;;;10.97;7.83;;;;;;;;;;5051543;28;20213;-78
2021/04/28 02:30:22;;;;;;;10.97;8.07;;;;;;;;;;5037331;28;20219;-77
2021/04/28 02:32:51;;;;;;;10.47;7.80;;;;;;;;;;5064713;28;20576;-77
2021/04/28 02:35:23;;;;;;;12.10;7.60;;;;;;;;;;5062689;28;20221;-78
2021/04/28 02:38:25;;;;;;;10.57;7.60;;;;;;;;;;5054172;28;20233;-77
2021/04/28 02:41:13;;;;;;;15.00;7.87;;;;;;;;;;5057695;28;20222;-78
2021/04/28 02:43:44;;;;;;;9.43;7.07;;;;;;;;;;5057880;28;20215;-78
2021/04/28 02:46:18;;;;;;;10.63;7.30;;;;;;;;;;5063034;28;20211;-78
2021/04/28 02:48:50;;;;;;;9.17;7.13;;;;;;;;;;5054983;28;20199;-77
2021/04/28 02:51:33;;;;;;;13.73;6.73;;;;;;;;;;5064091;28;20368;-77
2021/04/28 02:54:06;;;;;;;13.47;7.17;;;;;;;;;;5049289;28;20220;-77
2021/04/28 02:56:37;;;;;;;12.47;7.50;;;;;;;;;;5055094;28;20670;-79
2021/04/28 02:59:07;;;;;;;10.53;8.03;;;;;;;;;;5059222;28;20213;-80
2021/04/28 03:01:35;;;;;;;9.80;7.63;;;;;;;;;;5062044;28;20199;-77
2021/04/28 03:04:05;;;;;;;10.67;7.83;;;;;;;;;;5062925;28;20226;-78
2021/04/28 03:06:59;;;;;;;13.23;7.50;;;;;;;;;;5057010;28;20199;-77
2021/04/28 03:09:28;;;;;;;11.83;8.00;;;;;;;;;;5067281;28;20607;-81
2021/04/28 03:11:57;;;;;;;12.27;7.90;;;;;;;;;;5080564;28;20188;-83
2021/04/28 03:14:28;;;;;;;10.70;7.37;;;;;;;;;;5051442;28;20210;-79
2021/04/28 03:16:57;;;;;;;11.93;8.07;;;;;;;;;;5044824;28;20208;-79
2021/04/28 03:19:26;;;;;;;11.23;7.93;;;;;;;;;;5041066;28;20223;-79
2021/04/28 03:21:54;;;;;;;12.37;7.93;;;;;;;;;;5039460;28;20207;-79
2021/04/28 03:24:23;;;;;;;13.20;8.23;;;;;;;;;;5046373;28;20953;-78
2021/04/28 03:26:53;;;;;;;10.63;7.67;;;;;;;;;;5061676;28;20206;-79
2021/04/28 03:29:23;;;;;;;10.33;7.60;;;;;;;;;;5060554;28;20235;-78
2021/04/28 03:31:51;;;;;;;13.30;8.00;;;;;;;;;;5053802;28;20211;-80
2021/04/28 03:34:20;;;;;;;11.33;8.00;;;;;;;;;;5065386;28;20202;-78
2021/04/28 03:36:48;;;;;;;9.67;7.50;;;;;;;;;;5044888;28;20211;-78
2021/04/28 03:39:28;;;;;;;13.93;7.83;;;;;;;;;;5056375;28;20223;-78
2021/04/28 03:41:57;;;;;;;13.87;8.20;;;;;;;;;;5056998;28;20203;-78
2021/04/28 03:44:27;;;;;;;9.97;7.60;;;;;;;;;;5064144;28;20237;-78
2021/04/28 03:46:57;;;;;;;11.57;7.27;;;;;;;;;;5046546;28;20203;-78
2021/04/28 03:49:25;;;;;;;11.00;7.63;;;;;;;;;;5068223;28;20238;-79
2021/04/28 03:51:53;;;;;;;11.17;8.23;;;;;;;;;;5051731;28;20718;-79
2021/04/28 03:54:47;;;;;;;10.47;7.10;;;;;;;;;;5054631;28;20203;-78
2021/04/28 03:57:15;;;;;;;10.57;7.53;;;;;;;;;;5051040;28;20196;-80
2021/04/28 03:59:44;;;;;;;9.67;7.57;;;;;;;;;;5067460;28;20231;-78
2021/04/28 04:02:12;;;;;;;10.23;7.80;;;;;;;;;;5049633;28;20203;-80
2021/04/28 04:04:59;;;;;;;13.30;8.20;;;;;;;;;;5061713;28;20234;-79
2021/04/28 04:07:55;;;;;;;10.97;7.70;;;;;;;;;;5035937;28;20452;-78
2021/04/28 04:10:30;;;;;;;12.07;7.87;;;;;;;;;;5061395;28;20235;-79
2021/04/28 04:13:00;;;;;;;11.67;8.20;;;;;;;;;;5047791;28;20210;-78
2021/04/28 04:15:29;;;;;;;11.20;7.83;;;;;;;;;;5049211;28;20211;-80
2021/04/28 04:17:58;;;;;;;10.03;7.73;;;;;;;;;;5066234;28;20212;-79
2021/04/28 04:20:31;;;;;;;9.87;7.67;;;;;;;;;;5051088;28;20576;-80
2021/04/28 04:23:18;;;;;;;17.13;8.23;;;;;;;;;;5064477;28;20210;-79
2021/04/28 04:26:01;;;;;;;13.90;7.80;;;;;;;;;;5055258;28;20211;-78
2021/04/28 04:28:58;;;;;;;9.67;7.77;;;;;;;;;;5040205;28;20218;-78
2021/04/28 04:31:44;;;;;;;12.33;7.70;;;;;;;;;;5057832;28;20202;-78
2021/04/28 04:34:31;;;;;;;13.53;7.90;;;;;;;;;;5062246;28;20206;-79
2021/04/28 04:37:17;;;;;;;10.27;8.00;;;;;;;;;;5055018;28;20218;-78
2021/04/28 04:40:07;;;;;;;12.87;7.53;;;;;;;;;;5043139;28;20601;-78
2021/04/28 04:42:37;;;;;;;9.07;7.47;;;;;;;;;;5062666;28;20203;-78
2021/04/28 04:45:23;;;;;;;13.13;8.33;;;;;;;;;;5047204;28;20235;-79
2021/04/28 04:47:52;;;;;;;12.30;7.67;;;;;;;;;;5043799;28;20207;-79
2021/04/28 04:50:20;;;;;;;10.10;7.70;;;;;;;;;;5049366;28;20442;-78
2021/04/28 04:52:48;;;;;;;10.20;7.53;;;;;;;;;;5056943;28;20215;-78
2021/04/28 04:55:16;;;;;;;12.20;7.70;;;;;;;;;;5043503;28;20219;-78
2021/04/28 04:57:45;;;;;;;14.27;8.67;;;;;;;;;;5059668;28;20203;-77
2021/04/28 05:00:16;;;;;;;12.47;9.10;;;;;;;;;;5047529;28;20236;-77
2021/04/28 05:02:45;;;;;;;12.13;7.80;;;;;;;;;;5054579;28;20206;-79
2021/04/28 05:05:19;;;;;;;12.83;7.87;;;;;;;;;;5053228;28;20608;-80
2021/04/28 05:07:48;;;;;;;11.23;8.07;;;;;;;;;;5062855;28;20582;-80
2021/04/28 05:10:16;;;;;;;11.97;8.47;;;;;;;;;;5055107;28;20223;-79
2021/04/28 05:12:46;;;;;;;11.27;8.10;;;;;;;;;;5057976;28;20218;-78
2021/04/28 05:15:16;;;;;;;12.53;8.27;;;;;;;;;;5059644;28;20667;-78
2021/04/28 05:17:44;;;;;;;13.43;8.77;;;;;;;;;;5055448;28;20588;-78
2021/04/28 05:20:15;;;;;;;11.20;8.23;;;;;;;;;;5049866;28;20706;-77
2021/04/28 05:22:45;;;;;;;12.27;8.10;;;;;;;;;;5060027;28;20214;-78
2021/04/28 05:25:33;;;;;;;12.90;8.67;;;;;;;;;;5061411;28;20225;-78
2021/04/28 05:28:01;;;;;;;9.70;7.60;;;;;;;;;;5063880;28;20205;-77
2021/04/28 05:30:29;;;;;;;10.53;8.60;;;;;;;;;;5047629;28;20234;-78
2021/04/28 05:32:57;;;;;;;14.20;8.77;;;;;;;;;;5069958;28;20700;-76
2021/04/28 05:35:26;;;;;;;12.87;8.50;;;;;;;;;;5051117;28;20204;-75
2021/04/28 05:37:54;;;;;;;14.90;8.77;;;;;;;;;;5058268;28;20223;-76
2021/04/28 05:40:23;;;;;;;14.43;8.70;;;;;;;;;;5049802;28;20261;-76
2021/04/28 05:42:51;;;;;;;11.90;9.43;;;;;;;;;;5048102;28;20211;-78
2021/04/28 05:45:19;;;;;;;13.23;9.50;;;;;;;;;;5048709;28;20231;-77
2021/04/28 05:47:46;;;;;;;11.53;8.90;;;;;;;;;;5054598;28;20218;-78
2021/04/28 05:50:16;;;;;;;19.03;9.00;;;;;;;;;;5062326;28;20231;-77
2021/04/28 05:52:44;;;;;;;11.30;8.17;;;;;;;;;;5051570;28;20210;-78
2021/04/28 05:55:13;;;;;;;11.47;9.07;;;;;;;;;;5054460;28;20196;-78
2021/04/28 05:57:41;;;;;;;13.27;9.33;;;;;;;;;;5053518;28;20202;-77
2021/04/28 06:00:11;;;;;;;12.10;9.00;;;;;;;;;;5041610;28;20227;-78
2021/04/28 06:02:43;;;;;;;14.23;8.57;;;;;;;;;;5015523;28;20207;-78
2021/04/28 06:05:12;;;;;;;15.07;9.07;;;;;;;;;;5048954;28;20724;-78
2021/04/28 06:07:40;;;;;;;19.53;10.07;;;;;;;;;;5055534;28;20217;-78
2021/04/28 06:10:15;;;;;;;14.10;9.47;;;;;;;;;;5074559;28;20219;-79
2021/04/28 06:12:44;;;;;;;15.03;9.17;;;;;;;;;;5076451;28;20188;-80
2021/04/28 06:15:14;;;;;;;17.30;10.50;;;;;;;;;;5061030;28;20210;-78
2021/04/28 06:17:42;;;;;;;17.90;10.10;;;;;;;;;;5054778;28;20202;-78
2021/04/28 06:20:12;;;;;;;15.93;10.17;;;;;;;;;;5039672;28;20230;-78
2021/04/28 06:22:40;;;;;;;15.60;10.63;;;;;;;;;;5064706;28;20210;-77
2021/04/28 06:25:09;;;;;;;15.07;10.40;;;;;;;;;;5058463;28;20219;-79
2021/04/28 06:27:38;;;;;;;14.97;11.47;;;;;;;;;;5059997;28;20202;-79
2021/04/28 06:30:08;;;;;;;15.50;11.07;;;;;;;;;;5040004;28;20227;-79
2021/04/28 06:32:37;;;;;;;15.83;10.63;;;;;;;;;;5051459;28;20207;-78
2021/04/28 06:35:07;;;;;;;13.73;11.23;;;;;;;;;;5056828;28;20222;-78
2021/04/28 06:37:35;;;;;;;18.03;11.20;;;;;;;;;;5056416;28;20214;-79
2021/04/28 06:40:04;;;;;;;16.37;11.40;;;;;;;;;;5066738;28;20397;-80
2021/04/28 06:42:32;;;;;;;17.03;11.20;;;;;;;;;;5035971;28;20558;-79
2021/04/28 06:45:01;;;;;;;17.13;11.70;;;;;;;;;;5061267;28;20234;-78
2021/04/28 06:47:29;;;;;;;17.03;12.70;;;;;;;;;;5051558;28;20211;-79
2021/04/28 06:49:57;;;;;;;13.93;11.03;;;;;;;;;;5057758;28;20234;-78
2021/04/28 06:52:25;;;;;;;17.00;12.60;;;;;;;;;;5058455;28;20581;-78
2021/04/28 06:54:52;;;;;;;20.40;13.00;;;;;;;;;;5032555;28;20211;-79
2021/04/28 06:57:20;;;;;;;20.23;12.83;;;;;;;;;;5046258;28;20207;-78
2021/04/28 06:59:48;;;;;;;17.40;12.40;;;;;;;;;;5036618;28;20231;-79
2021/04/28 07:02:17;;;;;;;17.00;12.57;;;;;;;;;;5033379;28;20203;-77
2021/04/28 07:04:45;;;;;;;18.23;12.63;;;;;;;;;;5047725;28;20226;-79
2021/04/28 07:07:13;;;;;;;15.47;11.80;;;;;;;;;;5026950;28;20214;-78
2021/04/28 07:09:41;;;;;;;17.57;11.70;;;;;;;;;;5047612;28;20306;-78
2021/04/28 07:12:08;;;;;;;19.97;12.10;;;;;;;;;;5048627;28;20195;-78
2021/04/28 07:14:36;;;;;;;19.27;12.13;;;;;;;;;;5061207;28;20199;-78
2021/04/28 07:17:04;;;;;;;17.00;11.07;;;;;;;;;;5053170;28;20207;-78
2021/04/28 07:19:33;;;;;;;19.30;12.57;;;;;;;;;;5052662;28;20245;-78
2021/04/28 07:22:01;;;;;;;93.63;18.77;;;;;;;;;;5046205;28;20218;-78
2021/04/28 07:24:30;;;;;;;27.90;13.60;;;;;;;;;;5058119;28;20725;-79
2021/04/28 07:26:58;;;;;;;22.47;11.73;;;;;;;;;;5047145;28;20831;-79
2021/04/28 07:29:25;;;;;;;19.67;12.77;;;;;;;;;;5047642;28;20231;-79
2021/04/28 07:31:53;;;;;;;18.47;11.67;;;;;;;;;;5045236;28;20200;-77
2021/04/28 07:34:22;;;;;;;19.43;13.20;;;;;;;;;;5052921;28;20215;-78
2021/04/28 07:36:51;;;;;;;14.83;11.97;;;;;;;;;;5053934;28;20207;-78
2021/04/28 07:39:19;;;;;;;17.03;12.70;;;;;;;;;;5026623;28;20234;-79
2021/04/28 07:41:47;;;;;;;15.47;12.17;;;;;;;;;;5047886;28;20614;-78
2021/04/28 07:44:15;;;;;;;17.77;11.73;;;;;;;;;;5037299;28;20219;-78
2021/04/28 07:46:43;;;;;;;17.67;12.03;;;;;;;;;;5053389;28;20214;-76
2021/04/28 07:49:11;;;;;;;14.93;12.80;;;;;;;;;;5049653;28;20256;-77
2021/04/28 07:51:39;;;;;;;13.93;10.80;;;;;;;;;;5035439;28;20226;-77
2021/04/28 07:54:23;;;;;;;17.93;12.50;;;;;;;;;;5048870;28;20225;-77
2021/04/28 07:56:51;;;;;;;17.43;12.27;;;;;;;;;;5061320;28;20210;-78
2021/04/28 07:59:20;;;;;;;19.83;12.53;;;;;;;;;;5060565;28;20231;-78
2021/04/28 08:01:49;;;;;;;25.03;13.03;;;;;;;;;;5064012;28;20223;-76
2021/04/28 08:04:19;;;;;;;17.80;13.13;;;;;;;;;;5041712;28;20210;-78
2021/04/28 08:06:48;;;;;;;19.97;12.97;;;;;;;;;;5060539;28;20235;-77
2021/04/28 08:09:15;;;;;;;17.67;12.67;;;;;;;;;;5053544;28;20231;-78
2021/04/28 08:11:44;;;;;;;15.83;12.40;;;;;;;;;;5043456;28;20207;-78
2021/04/28 08:14:12;;;;;;;20.07;13.07;;;;;;;;;;5072495;28;20215;-77
2021/04/28 08:16:40;;;;;;;16.33;12.47;;;;;;;;;;5047796;28;20206;-76
2021/04/28 08:19:08;;;;;;;20.40;13.93;;;;;;;;;;5073671;28;20226;-78
2021/04/28 08:21:36;;;;;;;19.73;14.20;;;;;;;;;;5078310;28;20206;-78
2021/04/28 08:24:04;;;;;;;16.53;13.57;;;;;;;;;;5064659;28;20200;-77
2021/04/28 08:26:32;;;;;;;18.33;14.03;;;;;;;;;;5069100;28;20219;-78
2021/04/28 08:29:01;;;;;;;18.70;13.77;;;;;;;;;;5063376;28;20229;-79
2021/04/28 08:31:29;;;;;;;20.33;15.30;;;;;;;;;;5040969;28;20574;-78
2021/04/28 08:33:57;;;;;;;19.97;14.10;;;;;;;;;;5058066;28;20210;-79
2021/04/28 08:36:25;;;;;;;15.40;13.60;;;;;;;;;;5067283;28;20223;-78
2021/04/28 08:38:53;;;;;;;17.67;15.03;;;;;;;;;;5047044;28;20379;-77
2021/04/28 08:41:21;;;;;;;20.23;14.00;;;;;;;;;;5055233;28;20199;-77
2021/04/28 08:43:49;;;;;;;20.70;14.60;;;;;;;;;;5043677;28;20578;-80
2021/04/28 08:46:17;;;;;;;17.77;14.23;;;;;;;;;;5062319;28;20223;-78
2021/04/28 08:48:45;;;;;;;15.47;13.03;;;;;;;;;;5052874;28;20207;-79
2021/04/28 08:51:21;;;;;;;17.63;13.00;;;;;;;;;;5051075;28;20221;-77
2021/04/28 08:53:49;;;;;;;16.33;12.63;;;;;;;;;;5067466;28;20211;-76
2021/04/28 08:56:21;;;;;;;18.50;13.77;;;;;;;;;;5052683;28;20209;-79
2021/04/28 08:58:50;;;;;;;16.13;14.33;;;;;;;;;;5059999;28;20208;-79
2021/04/28 09:01:29;;;;;;;16.87;15.17;;;;;;;;;;5062182;28;20827;-76
2021/04/28 09:03:58;;;;;;;15.77;13.63;;;;;;;;;;5058364;28;20210;-78
2021/04/28 09:06:27;;;;;;;17.20;14.53;;;;;;;;;;5071990;28;20217;-76
2021/04/28 09:08:55;;;;;;;15.63;13.93;;;;;;;;;;5086375;28;20192;-76
2021/04/28 09:11:38;;;;;;;17.80;14.27;;;;;;;;;;5050136;28;20207;-77
2021/04/28 09:14:10;;;;;;;17.40;14.07;;;;;;;;;;5038986;28;20225;-76
2021/04/28 09:16:40;;;;;;;17.30;14.47;;;;;;;;;;5055870;28;20211;-76
2021/04/28 09:19:22;;;;;;;17.27;15.07;;;;;;;;;;5040176;28;20195;-75
2021/04/28 09:22:15;;;;;;;14.60;12.47;;;;;;;;;;5064791;28;20203;-75
2021/04/28 09:25:05;;;;;;;14.63;12.63;;;;;;;;;;5052176;28;20210;-75
2021/04/28 09:27:56;;;;;;;14.07;12.67;;;;;;;;;;5043371;28;20696;-75
2021/04/28 09:30:49;;;;;;;13.07;11.70;;;;;;;;;;5038569;28;20912;-77
2021/04/28 09:33:19;;;;;;;15.23;12.30;;;;;;;;;;5057275;28;20216;-75
2021/04/28 09:35:58;;;;;;;13.73;12.33;;;;;;;;;;5044343;28;20692;-76
2021/04/28 09:38:27;;;;;;;15.33;12.30;;;;;;;;;;5049596;28;20226;-76
2021/04/28 09:41:00;;;;;;;15.13;12.37;;;;;;;;;;5053784;28;20223;-77
2021/04/28 09:43:37;;;;;;;13.77;12.07;;;;;;;;;;5053068;28;20678;-77
2021/04/28 09:46:05;;;;;;;13.07;11.67;;;;;;;;;;5057822;28;20223;-77
2021/04/28 09:48:39;;;;;;;13.97;11.10;;;;;;;;;;5059991;28;20204;-77
2021/04/28 09:51:08;;;;;;;13.33;11.93;;;;;;;;;;5051074;28;20226;-77
2021/04/28 09:53:37;;;;;;;13.63;11.83;;;;;;;;;;5053079;28;20221;-77
2021/04/28 09:56:16;;;;;;;14.10;12.63;;;;;;;;;;5050738;28;20195;-77
2021/04/28 09:58:47;;;;;;;13.47;12.07;;;;;;;;;;5033639;28;20269;-75
2021/04/28 10:01:15;;;;;;;16.27;13.30;;;;;;;;;;5040274;28;20226;-78
2021/04/28 10:03:45;;;;;;;16.63;13.10;;;;;;;;;;5055712;28;20207;-77
2021/04/28 10:06:13;;;;;;;18.33;12.63;;;;;;;;;;5049425;28;20770;-77
2021/04/28 10:08:41;;;;;;;13.67;11.77;;;;;;;;;;5039698;28;20214;-78
2021/04/28 10:11:09;;;;;;;13.00;11.70;;;;;;;;;;5048594;28;20242;-77
2021/04/28 10:13:37;;;;;;;14.00;11.00;;;;;;;;;;5055175;28;20198;-76
2021/04/28 10:16:16;;;;;;;11.83;10.73;;;;;;;;;;5049688;28;20211;-77
2021/04/28 10:18:46;;;;;;;11.70;10.60;;;;;;;;;;5060253;28;20207;-74
2021/04/28 10:21:16;;;;;;;11.67;10.47;;;;;;;;;;5049913;28;20610;-77
2021/04/28 10:23:44;;;;;;;12.57;11.27;;;;;;;;;;5064283;28;20206;-77
2021/04/28 10:26:12;;;;;;;12.67;11.40;;;;;;;;;;5054413;28;20220;-78
2021/04/28 10:28:40;;;;;;;13.80;12.33;;;;;;;;;;5071461;28;20172;-74
2021/04/28 10:31:08;;;;;;;12.30;11.07;;;;;;;;;;5074522;28;20258;-75
2021/04/28 10:33:39;;;;;;;13.60;12.30;;;;;;;;;;5088096;28;20203;-75
2021/04/28 10:36:28;;;;;;;11.73;10.60;;;;;;;;;;5073327;28;20187;-75
2021/04/28 10:38:56;;;;;;;12.10;10.17;;;;;;;;;;5076431;28;20210;-77
2021/04/28 10:41:41;;;;;;;11.00;9.90;;;;;;;;;;5042657;28;20196;-77
2021/04/28 10:44:43;;;;;;;13.07;10.47;;;;;;;;;;5052706;28;20200;-77
2021/04/28 10:47:26;;;;;;;11.80;9.67;;;;;;;;;;5050001;28;20226;-77
2021/04/28 10:50:07;;;;;;;12.10;9.47;;;;;;;;;;5057195;28;20230;-76
2021/04/28 10:52:40;;;;;;;9.52;7.93;;;;;;;;;;5062329;28;20194;-76
2021/04/28 10:55:41;;;;;;;9.88;8.68;;;;;;;;;;5034746;28;20207;-76
2021/04/28 10:58:43;;;;;;;9.05;8.15;;;;;;;;;;5055666;28;20595;-75
2021/04/28 11:01:38;;;;;;;7.32;6.60;;;;;;;;;;5038486;28;21055;-77
2021/04/28 11:04:13;;;;;;;7.78;6.68;;;;;;;;;;5039777;28;20214;-76
2021/04/28 11:06:48;;;;;;;8.45;6.57;;;;;;;;;;5061850;28;20218;-76
2021/04/28 11:09:21;;;;;;;7.35;6.70;;;;;;;;;;5061854;28;20225;-76
2021/04/28 11:11:52;;;;;;;9.40;6.40;;;;;;;;;;5061868;28;20206;-77
2021/04/28 11:14:39;;;;;;;6.13;5.47;;;;;;;;;;5061459;28;20196;-76
2021/04/28 11:17:27;;;;;;;6.70;5.55;;;;;;;;;;5033900;28;20204;-79
2021/04/28 11:20:21;;;;;;;6.55;5.95;;;;;;;;;;5074302;28;20226;-78
2021/04/28 11:22:50;;;;;;;6.20;5.60;;;;;;;;;;5051872;28;20327;-76
2021/04/28 11:25:22;;;;;;;7.43;6.60;;;;;;;;;;5066340;28;20214;-76
2021/04/28 11:27:58;;;;;;;6.82;6.07;;;;;;;;;;5055431;28;20604;-77
2021/04/28 11:30:38;;;;;;;8.30;5.70;;;;;;;;;;5049226;28;20232;-77
2021/04/28 11:33:30;;;;;;;7.03;6.18;;;;;;;;;;5056671;28;20569;-76
2021/04/28 11:36:21;;;;;;;6.93;5.95;;;;;;;;;;5063008;28;20217;-76
2021/04/28 11:38:53;;;;;;;7.55;6.78;;;;;;;;;;5062904;28;20682;-76
2021/04/28 11:41:24;;;;;;;8.20;6.78;;;;;;;;;;5065679;28;20203;-76
2021/04/28 11:43:54;;;;;;;6.82;6.22;;;;;;;;;;5039916;28;20789;-77
2021/04/28 11:46:24;;;;;;;8.70;5.43;;;;;;;;;;5070377;28;20221;-80
2021/04/28 11:48:52;;;;;;;6.95;6.25;;;;;;;;;;5073339;28;20207;-77
2021/04/28 11:51:26;;;;;;;7.00;5.95;;;;;;;;;;5064867;28;20615;-77
2021/04/28 11:53:56;;;;;;;6.30;5.70;;;;;;;;;;5049000;28;20211;-77
2021/04/28 11:56:30;;;;;;;6.70;5.72;;;;;;;;;;5049314;28;20214;-76
2021/04/28 11:59:00;;;;;;;6.72;5.30;;;;;;;;;;5067101;28;20211;-76
2021/04/28 12:01:30;;;;;;;5.30;4.80;;;;;;;;;;5067743;28;20230;-76
2021/04/28 12:04:01;;;;;;;6.57;5.75;;;;;;;;;;5075474;28;20191;-76
2021/04/28 12:06:30;;;;;;;5.22;4.72;;;;;;;;;;5088266;28;20205;-75
2021/04/28 12:09:38;;;;;;;5.85;4.97;;;;;;;;;;5062317;28;20556;-76
2021/04/28 12:12:18;;;;;;;7.18;4.57;;;;;;;;;;5033389;28;20202;-76
2021/04/28 12:14:48;;;;;;;5.97;4.60;;;;;;;;;;5063125;28;20221;-76
2021/04/28 12:17:18;;;;;;;4.75;4.18;;;;;;;;;;5062628;28;20206;-76
2021/04/28 12:19:48;;;;;;;4.40;4.00;;;;;;;;;;5043180;28;20610;-76
2021/04/28 12:22:16;;;;;;;4.75;4.25;;;;;;;;;;5069677;28;20564;-76
2021/04/28 12:24:45;;;;;;;4.65;3.72;;;;;;;;;;5062273;28;20216;-77
2021/04/28 12:27:17;;;;;;;6.32;4.25;;;;;;;;;;5052813;28;20226;-77
2021/04/28 12:29:47;;;;;;;4.72;4.00;;;;;;;;;;5067060;28;20214;-77
2021/04/28 12:32:23;;;;;;;5.22;3.95;;;;;;;;;;5074230;28;20324;-77
2021/04/28 12:35:07;;;;;;;5.45;4.35;;;;;;;;;;5062464;28;20215;-77
2021/04/28 12:37:35;;;;;;;10.93;5.03;;;;;;;;;;5062215;28;20203;-77
2021/04/28 12:40:06;;;;;;;4.85;3.80;;;;;;;;;;5060083;28;20698;-77
2021/04/28 12:42:36;;;;;;;5.13;3.80;;;;;;;;;;5068864;28;20211;-77
2021/04/28 12:45:10;;;;;;;4.45;3.75;;;;;;;;;;5056579;28;20211;-77
2021/04/28 12:47:39;;;;;;;6.70;4.28;;;;;;;;;;5058262;28;20225;-76
2021/04/28 12:50:11;;;;;;;4.05;3.58;;;;;;;;;;5059222;28;20224;-76
2021/04/28 12:52:41;;;;;;;4.03;3.60;;;;;;;;;;5053889;28;20675;-76
2021/04/28 12:55:40;;;;;;;5.82;3.88;;;;;;;;;;5062292;28;20211;-77
2021/04/28 12:58:11;;;;;;;5.07;3.85;;;;;;;;;;4970261;28;20202;-76
2021/04/28 13:00:43;;;;;;;3.83;3.53;;;;;;;;;;5040901;28;20222;-77
2021/04/28 13:03:14;;;;;;;4.20;3.80;;;;;;;;;;5059064;28;20207;-76
2021/04/28 13:05:44;;;;;;;4.78;4.20;;;;;;;;;;5055606;28;20219;-77
2021/04/28 13:08:32;;;;;;;6.57;3.50;;;;;;;;;;5058345;28;20635;-77
2021/04/28 13:11:04;;;;;;;5.28;3.60;;;;;;;;;;5054637;28;20219;-77
2021/04/28 13:13:34;;;;;;;4.55;3.40;;;;;;;;;;5062691;28;20203;-77
2021/04/28 13:16:29;;;;;;;4.35;3.40;;;;;;;;;;5040652;28;20219;-77
2021/04/28 13:18:59;;;;;;;6.65;3.60;;;;;;;;;;5041788;28;20573;-77
2021/04/28 13:21:28;;;;;;;3.78;3.38;;;;;;;;;;5057133;28;20209;-77
2021/04/28 13:24:06;;;;;;;3.97;3.15;;;;;;;;;;5055655;28;20207;-77
2021/04/28 13:26:35;;;;;;;3.15;2.85;;;;;;;;;;5063031;28;20200;-77
2021/04/28 13:29:06;;;;;;;4.70;3.13;;;;;;;;;;5059543;28;20214;-77
2021/04/28 13:31:38;;;;;;;4.88;3.80;;;;;;;;;;5054660;28;20204;-76
2021/04/28 13:34:07;;;;;;;3.00;2.80;;;;;;;;;;5053307;28;20733;-76
2021/04/28 13:36:37;;;;;;;3.70;2.92;;;;;;;;;;5061937;28;20203;-77
2021/04/28 13:39:09;;;;;;;5.15;3.03;;;;;;;;;;5058281;28;20245;-77
2021/04/28 13:41:38;;;;;;;3.25;2.60;;;;;;;;;;5039436;28;20214;-76
2021/04/28 13:44:08;;;;;;;3.78;2.70;;;;;;;;;;5054767;28;20223;-77
2021/04/28 13:46:38;;;;;;;3.13;2.60;;;;;;;;;;5051702;28;20204;-76
2021/04/28 13:49:07;;;;;;;5.70;3.05;;;;;;;;;;5057509;28;20195;-76
2021/04/28 13:51:36;;;;;;;4.03;3.20;;;;;;;;;;5054170;28;20219;-77
2021/04/28 13:54:05;;;;;;;3.88;2.65;;;;;;;;;;5054788;28;20207;-77
2021/04/28 13:56:33;;;;;;;4.93;2.70;;;;;;;;;;5065419;28;20204;-77
2021/04/28 13:59:01;;;;;;;2.45;2.25;;;;;;;;;;5051257;28;20226;-77
2021/04/28 14:01:30;;;;;;;4.15;2.70;;;;;;;;;;5054442;28;20214;-76
2021/04/28 14:03:58;;;;;;;3.03;2.70;;;;;;;;;;5059594;28;20718;-77
2021/04/28 14:06:26;;;;;;;2.97;2.50;;;;;;;;;;5051790;28;20195;-76
2021/04/28 14:08:54;;;;;;;3.55;2.50;;;;;;;;;;5060901;28;20394;-77
2021/04/28 14:11:23;;;;;;;2.40;2.08;;;;;;;;;;5067037;28;20698;-77
2021/04/28 14:13:51;;;;;;;2.33;2.13;;;;;;;;;;5061816;28;20195;-76
2021/04/28 14:16:20;;;;;;;3.72;2.67;;;;;;;;;;5052812;28;20666;-77
2021/04/28 14:18:49;;;;;;;2.28;2.05;;;;;;;;;;5054977;28;20215;-76
2021/04/28 14:21:17;;;;;;;3.15;2.50;;;;;;;;;;5069408;28;20226;-77
2021/04/28 14:23:46;;;;;;;5.15;2.67;;;;;;;;;;5043575;28;20199;-76
2021/04/28 14:26:14;;;;;;;3.90;2.40;;;;;;;;;;5063400;28;20206;-77
2021/04/28 14:28:46;;;;;;;4.68;2.22;;;;;;;;;;5044351;28;20219;-77
2021/04/28 14:31:15;;;;;;;3.50;2.60;;;;;;;;;;5047697;28;20215;-77
2021/04/28 14:33:43;;;;;;;4.43;2.80;;;;;;;;;;5051866;28;20218;-77
2021/04/28 14:36:13;;;;;;;3.42;2.55;;;;;;;;;;5066551;28;20198;-77
2021/04/28 14:38:41;;;;;;;3.97;2.80;;;;;;;;;;5059556;28;20214;-76
2021/04/28 14:41:09;;;;;;;5.68;2.50;;;;;;;;;;5064041;28;20229;-77
2021/04/28 14:43:38;;;;;;;2.78;2.50;;;;;;;;;;5066950;28;20667;-76
2021/04/28 14:46:06;;;;;;;5.35;2.90;;;;;;;;;;5051336;28;20196;-77
2021/04/28 14:48:35;;;;;;;4.93;3.20;;;;;;;;;;5052192;28;20254;-78
2021/04/28 14:51:05;;;;;;;6.53;3.17;;;;;;;;;;5063460;28;20234;-76
2021/04/28 14:53:34;;;;;;;4.90;2.60;;;;;;;;;;5057690;28;20210;-76
2021/04/28 14:56:04;;;;;;;3.67;2.40;;;;;;;;;;5045681;28;20757;-77
2021/04/28 14:58:37;;;;;;;4.93;2.70;;;;;;;;;;5067548;28;20213;-76
2021/04/28 15:01:05;;;;;;;4.53;2.67;;;;;;;;;;5087624;28;20215;-76